Time;durP1;ratioP1;P1;durP2;ratioP2;P2;SDS_P1;SDS_P2;PMS_P1;PMS_P2;Temp;Humidity;BMP_temperature;BMP_pressure;BME280_temperature;BME280_humidity;BME280_pressure;Samples;Min_cycle;Max_cycle;Signal;HPM_P1;HPM_P2
2023/06/17 00:01:05;;;;;;;17.05;10.60;;;18.30;99.90;;;;;;5123278;27;20782;-75
2023/06/17 00:03:30;;;;;;;15.30;10.50;;;18.30;99.90;;;;;;5102422;28;20895;-75
2023/06/17 00:05:56;;;;;;;18.00;10.90;;;18.20;99.90;;;;;;5124776;27;20433;-75
2023/06/17 00:08:22;;;;;;;18.80;11.60;;;18.20;99.90;;;;;;5124133;27;20424;-75
2023/06/17 00:10:48;;;;;;;16.83;11.17;;;18.20;99.90;;;;;;5127061;27;20441;-75
2023/06/17 00:13:19;;;;;;;16.13;11.30;;;18.20;99.90;;;;;;5122878;27;20894;-75
2023/06/17 00:15:47;;;;;;;18.85;11.75;;;18.10;99.90;;;;;;5126405;27;20410;-75
2023/06/17 00:18:14;;;;;;;17.17;11.60;;;18.10;99.90;;;;;;5124241;27;20400;-75
2023/06/17 00:20:39;;;;;;;17.17;11.57;;;18.00;99.90;;;;;;5127966;27;20433;-75
2023/06/17 00:23:06;;;;;;;17.92;11.55;;;18.00;99.90;;;;;;5096016;27;20423;-75
2023/06/17 00:25:31;;;;;;;16.52;10.85;;;18.00;99.90;;;;;;5127967;27;20909;-75
2023/06/17 00:27:57;;;;;;;19.55;11.93;;;17.90;99.90;;;;;;5123906;27;20438;-75
2023/06/17 00:30:22;;;;;;;18.92;11.63;;;17.90;99.90;;;;;;5125568;27;20903;-75
2023/06/17 00:32:48;;;;;;;17.90;11.33;;;17.80;99.90;;;;;;5109593;27;20398;-75
2023/06/17 00:35:14;;;;;;;16.80;11.13;;;17.80;99.90;;;;;;5126580;27;20924;-75
2023/06/17 00:37:39;;;;;;;14.70;10.43;;;17.80;99.90;;;;;;5117262;27;20477;-75
2023/06/17 00:40:07;;;;;;;16.73;10.37;;;17.80;99.90;;;;;;5127886;27;20796;-75
2023/06/17 00:42:34;;;;;;;16.75;10.13;;;17.80;99.90;;;;;;5121148;27;20775;-75
2023/06/17 00:45:00;;;;;;;17.27;10.27;;;17.70;99.90;;;;;;5125910;27;20520;-75
2023/06/17 00:47:25;;;;;;;16.83;10.67;;;17.80;99.90;;;;;;5118065;27;20936;-75
2023/06/17 00:49:53;;;;;;;20.67;11.02;;;17.80;99.90;;;;;;5118988;27;20399;-75
2023/06/17 00:52:20;;;;;;;16.85;11.05;;;17.70;99.90;;;;;;5125375;27;20902;-76
2023/06/17 00:54:46;;;;;;;16.52;11.30;;;17.70;99.90;;;;;;5126298;27;20393;-76
2023/06/17 00:57:14;;;;;;;15.40;11.00;;;17.70;99.90;;;;;;5125153;27;20391;-75
2023/06/17 00:59:42;;;;;;;16.85;11.20;;;17.60;99.90;;;;;;5127772;27;20471;-75
2023/06/17 01:02:09;;;;;;;17.40;11.83;;;17.60;99.90;;;;;;5123769;27;20410;-75
2023/06/17 01:04:37;;;;;;;20.17;13.20;;;17.60;99.90;;;;;;5127328;27;20422;-75
2023/06/17 01:07:27;;;;;;;20.07;12.50;;;17.60;99.90;;;;;;5126187;27;20405;-75
2023/06/17 01:10:06;;;;;;;20.23;13.30;;;17.60;99.90;;;;;;5081842;27;20499;-75
2023/06/17 01:12:32;;;;;;;18.38;12.77;;;17.50;99.90;;;;;;5126523;27;20626;-75
2023/06/17 01:14:58;;;;;;;18.60;13.00;;;17.60;99.90;;;;;;5124828;27;20610;-75
2023/06/17 01:17:26;;;;;;;19.63;12.85;;;17.60;99.90;;;;;;5125870;27;20901;-75
2023/06/17 01:19:53;;;;;;;18.90;12.63;;;17.60;99.90;;;;;;5124464;27;20914;-75
2023/06/17 01:22:20;;;;;;;22.17;13.85;;;17.60;99.90;;;;;;5125792;27;20406;-75
2023/06/17 01:24:49;;;;;;;21.03;13.33;;;17.60;99.90;;;;;;5125106;27;20749;-75
2023/06/17 01:27:15;;;;;;;22.90;14.13;;;17.60;99.90;;;;;;5127394;27;20893;-75
2023/06/17 01:29:41;;;;;;;19.35;12.90;;;17.60;99.90;;;;;;5120516;27;20467;-75
2023/06/17 01:32:07;;;;;;;20.90;13.93;;;17.60;99.90;;;;;;5120405;27;20472;-75
2023/06/17 01:35:01;;;;;;;20.10;13.57;;;17.60;99.90;;;;;;5107012;27;20795;-75
2023/06/17 01:37:45;;;;;;;19.73;13.52;;;17.60;99.90;;;;;;5112828;27;20548;-75
2023/06/17 01:40:13;;;;;;;19.67;13.13;;;17.60;99.90;;;;;;5125211;27;20770;-75
2023/06/17 01:42:44;;;;;;;20.77;13.63;;;17.70;99.90;;;;;;5123357;27;20402;-75
2023/06/17 01:45:10;;;;;;;20.80;14.25;;;17.70;99.90;;;;;;5124595;27;20395;-75
2023/06/17 01:47:36;;;;;;;18.73;14.40;;;17.70;99.90;;;;;;5119949;27;20428;-75
2023/06/17 01:50:04;;;;;;;22.40;14.00;;;17.60;99.90;;;;;;5119570;27;20405;-75
2023/06/17 01:52:30;;;;;;;19.58;13.75;;;17.70;99.90;;;;;;5123114;27;20399;-75
2023/06/17 01:54:57;;;;;;;19.35;14.13;;;17.60;99.90;;;;;;5115134;27;20396;-75
2023/06/17 01:57:22;;;;;;;21.45;14.70;;;17.60;99.90;;;;;;5123532;27;20761;-75
2023/06/17 01:59:48;;;;;;;20.37;14.47;;;17.60;99.90;;;;;;5124243;27;20410;-75
2023/06/17 02:02:14;;;;;;;20.13;14.27;;;17.60;99.90;;;;;;5123844;27;20407;-75
2023/06/17 02:04:41;;;;;;;22.13;13.65;;;17.60;99.90;;;;;;5125270;27;20395;-75
2023/06/17 02:07:06;;;;;;;23.00;14.98;;;17.70;99.90;;;;;;5122005;27;20411;-75
2023/06/17 02:09:32;;;;;;;19.25;14.13;;;17.70;99.90;;;;;;5123501;27;20410;-75
2023/06/17 02:11:58;;;;;;;19.50;14.20;;;17.70;99.90;;;;;;5123119;27;20490;-75
2023/06/17 02:14:23;;;;;;;21.73;15.25;;;17.70;99.90;;;;;;5123759;27;20402;-75
2023/06/17 02:16:49;;;;;;;22.13;16.03;;;17.70;99.90;;;;;;5123545;27;20395;-75
2023/06/17 02:19:15;;;;;;;23.20;16.10;;;17.70;99.90;;;;;;5113984;27;20396;-75
2023/06/17 02:21:44;;;;;;;25.27;15.80;;;17.70;99.90;;;;;;5120813;27;20391;-75
2023/06/17 02:24:10;;;;;;;24.08;16.85;;;17.70;99.90;;;;;;5123037;27;20399;-75
2023/06/17 02:26:36;;;;;;;27.52;16.38;;;17.70;99.90;;;;;;5121532;27;20398;-75
2023/06/17 02:29:03;;;;;;;26.15;16.77;;;17.70;99.90;;;;;;5111868;27;20922;-75
2023/06/17 02:31:28;;;;;;;25.77;18.10;;;17.70;99.90;;;;;;5121116;27;20403;-75
2023/06/17 02:33:55;;;;;;;24.80;17.92;;;17.70;99.90;;;;;;5123139;27;20398;-75
2023/06/17 02:36:21;;;;;;;24.83;17.40;;;17.60;99.90;;;;;;5110796;27;20458;-75
2023/06/17 02:38:47;;;;;;;22.88;16.70;;;17.70;99.90;;;;;;5104973;27;20401;-75
2023/06/17 02:41:13;;;;;;;27.33;18.33;;;17.60;99.90;;;;;;5121809;27;20447;-75
2023/06/17 02:43:38;;;;;;;26.27;17.47;;;17.60;99.90;;;;;;5121697;27;20935;-75
2023/06/17 02:46:04;;;;;;;28.23;18.02;;;17.60;99.90;;;;;;5117898;27;20494;-75
2023/06/17 02:48:30;;;;;;;24.00;17.23;;;17.60;99.90;;;;;;5112625;28;20503;-75
2023/06/17 02:50:55;;;;;;;26.20;17.43;;;17.60;99.90;;;;;;5122994;27;20805;-75
2023/06/17 02:53:21;;;;;;;25.00;16.70;;;17.60;99.90;;;;;;5124933;27;20399;-75
2023/06/17 02:55:48;;;;;;;20.67;16.25;;;17.60;99.90;;;;;;5112808;27;20979;-75
2023/06/17 02:58:18;;;;;;;23.40;15.57;;;17.60;99.90;;;;;;5113001;27;20416;-75
2023/06/17 03:00:45;;;;;;;23.27;15.70;;;17.60;99.90;;;;;;5106071;28;20401;-75
2023/06/17 03:03:11;;;;;;;22.33;16.00;;;17.60;99.90;;;;;;5122995;27;20429;-75
2023/06/17 03:05:41;;;;;;;23.02;15.63;;;17.50;99.90;;;;;;5122430;27;20402;-75
2023/06/17 03:08:07;;;;;;;19.20;14.40;;;17.50;99.90;;;;;;5121488;28;20453;-75
2023/06/17 03:10:33;;;;;;;20.25;14.15;;;17.50;99.90;;;;;;5122011;28;20452;-75
2023/06/17 03:13:00;;;;;;;21.00;14.18;;;17.40;99.90;;;;;;5120413;28;20406;-75
2023/06/17 03:15:26;;;;;;;22.58;14.90;;;17.50;99.90;;;;;;5123819;27;20480;-75
2023/06/17 03:17:52;;;;;;;22.55;14.35;;;17.50;99.90;;;;;;5120643;28;20399;-75
2023/06/17 03:20:18;;;;;;;22.57;15.20;;;17.50;99.90;;;;;;5104878;28;20409;-75
2023/06/17 03:22:44;;;;;;;22.20;15.02;;;17.50;99.90;;;;;;5122436;27;20390;-75
2023/06/17 03:25:10;;;;;;;23.90;15.60;;;17.40;99.90;;;;;;5121798;28;20539;-75
2023/06/17 03:27:35;;;;;;;23.90;16.70;;;17.40;99.90;;;;;;5120403;28;20418;-75
2023/06/17 03:30:02;;;;;;;25.13;16.95;;;17.50;99.90;;;;;;5124234;28;20944;-75
2023/06/17 03:32:27;;;;;;;24.00;17.77;;;17.40;99.90;;;;;;5121569;27;20752;-75
2023/06/17 03:34:53;;;;;;;26.63;18.77;;;17.30;99.90;;;;;;5121842;27;20410;-74
2023/06/17 03:37:20;;;;;;;23.23;17.67;;;17.30;99.90;;;;;;5119445;28;20418;-75
2023/06/17 03:39:45;;;;;;;23.80;17.50;;;17.30;99.90;;;;;;5121458;27;20407;-75
2023/06/17 03:42:16;;;;;;;22.93;16.63;;;17.30;99.90;;;;;;5123972;27;20407;-75
2023/06/17 03:44:42;;;;;;;28.35;17.42;;;17.30;99.90;;;;;;5127048;27;20447;-75
2023/06/17 03:47:08;;;;;;;24.80;17.77;;;17.30;99.90;;;;;;5123325;27;20424;-75
2023/06/17 03:49:33;;;;;;;24.45;17.52;;;17.20;99.90;;;;;;5118192;27;20997;-75
2023/06/17 03:51:59;;;;;;;25.10;18.90;;;17.20;99.90;;;;;;5124948;27;20494;-75
2023/06/17 03:54:25;;;;;;;26.30;19.67;;;17.20;99.90;;;;;;5127482;27;20424;-75
2023/06/17 03:56:50;;;;;;;26.30;19.50;;;17.20;99.90;;;;;;5123867;27;21687;-75
2023/06/17 03:59:17;;;;;;;28.92;19.98;;;17.20;99.90;;;;;;5128373;27;20418;-75
2023/06/17 04:01:43;;;;;;;27.95;20.17;;;17.30;99.90;;;;;;5125383;27;20427;-75
2023/06/17 04:04:09;;;;;;;27.10;19.65;;;17.20;99.90;;;;;;5128610;27;20525;-75
2023/06/17 04:06:35;;;;;;;27.27;19.67;;;17.30;99.90;;;;;;5113865;27;20686;-75
2023/06/17 04:09:02;;;;;;;25.00;19.52;;;17.30;99.90;;;;;;5116513;27;20941;-75
2023/06/17 04:11:29;;;;;;;27.98;19.90;;;17.20;99.90;;;;;;5125893;27;20412;-75
2023/06/17 04:13:55;;;;;;;28.70;20.27;;;17.20;99.90;;;;;;5129425;27;20414;-75
2023/06/17 04:16:21;;;;;;;27.47;19.27;;;17.20;99.90;;;;;;5125373;27;20408;-75
2023/06/17 04:18:47;;;;;;;27.08;19.42;;;17.20;99.90;;;;;;5128313;27;20399;-75
2023/06/17 04:21:12;;;;;;;25.20;19.45;;;17.20;99.90;;;;;;5124122;27;20752;-74
2023/06/17 04:23:38;;;;;;;26.80;19.23;;;17.20;99.90;;;;;;5127834;27;20743;-75
2023/06/17 04:26:03;;;;;;;25.30;18.17;;;17.20;99.90;;;;;;5126059;27;20425;-75
2023/06/17 04:28:32;;;;;;;23.95;17.58;;;17.20;99.90;;;;;;5130207;27;20414;-75
2023/06/17 04:31:02;;;;;;;26.33;17.38;;;17.20;99.90;;;;;;5127110;27;20405;-74
2023/06/17 04:33:30;;;;;;;28.88;17.98;;;17.10;99.90;;;;;;5128063;27;20409;-74
2023/06/17 04:35:57;;;;;;;25.02;17.02;;;17.20;99.90;;;;;;5127050;27;20475;-74
2023/06/17 04:38:23;;;;;;;23.27;16.65;;;17.10;99.90;;;;;;5118716;27;20406;-75
2023/06/17 04:40:52;;;;;;;25.65;17.75;;;17.10;99.90;;;;;;5124132;27;20408;-74
2023/06/17 04:43:20;;;;;;;23.65;17.02;;;17.20;99.90;;;;;;5127885;27;20931;-74
2023/06/17 04:45:46;;;;;;;25.38;16.50;;;17.20;99.90;;;;;;5127444;27;20401;-75
2023/06/17 04:48:11;;;;;;;23.47;16.47;;;17.20;99.90;;;;;;5119154;27;20458;-74
2023/06/17 04:50:37;;;;;;;20.80;15.88;;;17.30;99.90;;;;;;5124176;27;20441;-74
2023/06/17 04:53:06;;;;;;;21.47;16.00;;;17.30;99.90;;;;;;5127822;27;20402;-74
2023/06/17 04:55:35;;;;;;;23.53;16.33;;;17.30;99.90;;;;;;5125506;27;20407;-74
2023/06/17 04:58:04;;;;;;;23.50;16.40;;;17.30;99.90;;;;;;5128457;27;20402;-74
2023/06/17 05:00:30;;;;;;;23.40;17.47;;;17.40;99.90;;;;;;5124788;27;20402;-74
2023/06/17 05:02:59;;;;;;;25.23;17.65;;;17.30;99.90;;;;;;5127859;27;20446;-74
2023/06/17 05:05:24;;;;;;;25.42;17.77;;;17.30;99.90;;;;;;5124680;27;20409;-74
2023/06/17 05:07:50;;;;;;;27.47;19.50;;;17.30;99.90;;;;;;5127492;27;20411;-74
2023/06/17 05:10:16;;;;;;;23.98;19.02;;;17.30;99.90;;;;;;5124284;27;20405;-74
2023/06/17 05:12:42;;;;;;;24.80;18.63;;;17.30;99.90;;;;;;5126669;27;20451;-76
2023/06/17 05:15:08;;;;;;;24.27;18.05;;;17.30;99.90;;;;;;5124145;27;20755;-74
2023/06/17 05:17:34;;;;;;;27.40;19.95;;;17.30;99.90;;;;;;5127388;27;20436;-74
2023/06/17 05:19:59;;;;;;;26.70;20.83;;;17.30;99.90;;;;;;5123542;27;20788;-74
2023/06/17 05:22:25;;;;;;;30.95;21.08;;;17.30;99.90;;;;;;5127222;27;20962;-74
2023/06/17 05:24:50;;;;;;;28.00;20.43;;;17.40;99.90;;;;;;5124555;27;20923;-74
2023/06/17 05:27:16;;;;;;;26.87;20.37;;;17.40;99.90;;;;;;5126888;27;21015;-74
2023/06/17 05:29:42;;;;;;;26.38;19.83;;;17.40;99.90;;;;;;5121609;27;20415;-76
2023/06/17 05:32:08;;;;;;;27.73;20.05;;;17.40;99.90;;;;;;5125183;27;20452;-73
2023/06/17 05:34:34;;;;;;;28.30;19.40;;;17.40;99.90;;;;;;5120831;27;20522;-75
2023/06/17 05:36:59;;;;;;;26.30;19.40;;;17.50;99.90;;;;;;5125096;27;20405;-75
2023/06/17 05:39:25;;;;;;;24.67;19.40;;;17.50;99.90;;;;;;5120076;27;20835;-75
2023/06/17 05:41:50;;;;;;;26.27;19.70;;;17.50;99.90;;;;;;5124828;27;20477;-75
2023/06/17 05:44:16;;;;;;;26.70;19.93;;;17.50;99.90;;;;;;5120482;27;20794;-75
2023/06/17 05:46:42;;;;;;;27.35;19.08;;;17.50;99.90;;;;;;5124412;27;20447;-75
2023/06/17 05:49:07;;;;;;;27.03;19.13;;;17.50;99.90;;;;;;5113109;27;20876;-75
2023/06/17 05:51:33;;;;;;;25.38;18.27;;;17.60;99.90;;;;;;5126443;27;20406;-75
2023/06/17 05:53:58;;;;;;;27.50;18.83;;;17.60;99.90;;;;;;5111533;27;20419;-75
2023/06/17 05:56:25;;;;;;;25.13;18.40;;;17.60;99.90;;;;;;5127148;27;20410;-75
2023/06/17 05:58:50;;;;;;;22.83;16.87;;;17.60;99.90;;;;;;5122936;27;20507;-75
2023/06/17 06:01:17;;;;;;;28.58;17.83;;;17.60;99.90;;;;;;5126731;27;20438;-76
2023/06/17 06:03:43;;;;;;;22.35;15.35;;;17.70;99.90;;;;;;5123217;27;20929;-75
2023/06/17 06:06:08;;;;;;;22.17;14.68;;;17.80;99.90;;;;;;5115746;27;20466;-75
2023/06/17 06:08:34;;;;;;;20.00;13.97;;;17.80;99.90;;;;;;5122240;27;20951;-75
2023/06/17 06:10:59;;;;;;;21.25;14.50;;;17.80;99.90;;;;;;5127497;27;20413;-75
2023/06/17 06:13:25;;;;;;;19.30;13.70;;;17.90;99.90;;;;;;5107815;27;20404;-76
2023/06/17 06:15:51;;;;;;;20.50;12.97;;;18.00;99.90;;;;;;5118099;27;20418;-75
2023/06/17 06:18:16;;;;;;;17.15;12.10;;;18.00;99.90;;;;;;5124581;27;20405;-75
2023/06/17 06:20:42;;;;;;;19.77;13.07;;;18.00;99.90;;;;;;5127061;27;20950;-75
2023/06/17 06:23:09;;;;;;;23.30;14.07;;;18.10;99.90;;;;;;5124202;27;20474;-75
2023/06/17 06:25:35;;;;;;;21.00;13.02;;;18.10;99.90;;;;;;5124666;27;20497;-76
2023/06/17 06:28:00;;;;;;;19.00;12.50;;;18.10;99.90;;;;;;5120814;27;20509;-76
2023/06/17 06:30:26;;;;;;;19.50;12.83;;;18.10;99.90;;;;;;5124974;27;20398;-75
2023/06/17 06:32:51;;;;;;;20.58;12.95;;;18.10;99.90;;;;;;5121803;27;20415;-76
2023/06/17 06:35:17;;;;;;;21.93;12.63;;;18.10;99.90;;;;;;5125466;27;20387;-75
2023/06/17 06:37:43;;;;;;;18.43;12.10;;;18.20;99.90;;;;;;5111396;27;20403;-76
2023/06/17 06:40:09;;;;;;;19.20;12.70;;;18.20;99.90;;;;;;5125094;27;20421;-75
2023/06/17 06:42:35;;;;;;;19.05;11.70;;;18.20;99.90;;;;;;5110744;27;20446;-75
2023/06/17 06:45:01;;;;;;;17.50;11.13;;;18.30;99.90;;;;;;5123315;27;20407;-75
2023/06/17 06:47:28;;;;;;;16.67;11.23;;;18.30;99.90;;;;;;5097586;28;20404;-75
2023/06/17 06:49:54;;;;;;;17.58;11.90;;;18.40;99.90;;;;;;5108143;28;20411;-75
2023/06/17 06:52:20;;;;;;;17.93;11.67;;;18.50;99.90;;;;;;5120449;27;20398;-75
2023/06/17 06:54:46;;;;;;;18.27;11.57;;;18.50;99.90;;;;;;5126140;27;20398;-77
2023/06/17 06:57:12;;;;;;;15.70;10.30;;;18.60;99.90;;;;;;5120982;27;20449;-75
2023/06/17 06:59:37;;;;;;;18.83;11.40;;;18.60;99.90;;;;;;5114465;27;20400;-76
2023/06/17 07:02:03;;;;;;;19.52;11.20;;;18.70;99.90;;;;;;5119630;28;20404;-75
2023/06/17 07:04:29;;;;;;;16.40;10.77;;;18.80;99.90;;;;;;5097629;28;20925;-75
2023/06/17 07:06:54;;;;;;;21.65;11.18;;;18.80;99.90;;;;;;5118334;28;20408;-76
2023/06/17 07:09:20;;;;;;;18.67;11.23;;;18.80;99.90;;;;;;5106251;28;20422;-75
2023/06/17 07:11:46;;;;;;;16.50;10.35;;;18.90;99.90;;;;;;5119906;27;20396;-75
2023/06/17 07:14:12;;;;;;;18.33;10.90;;;18.90;99.90;;;;;;5124461;27;20418;-75
2023/06/17 07:16:37;;;;;;;16.63;10.45;;;19.00;99.90;;;;;;5124087;27;20882;-76
2023/06/17 07:19:03;;;;;;;16.42;10.10;;;19.10;99.90;;;;;;5116759;27;20408;-76
2023/06/17 07:21:29;;;;;;;17.73;10.57;;;19.20;99.90;;;;;;5111851;27;20404;-76
2023/06/17 07:23:54;;;;;;;19.30;10.70;;;19.30;99.90;;;;;;5081278;28;20930;-77
2023/06/17 07:26:20;;;;;;;16.98;10.68;;;19.30;99.90;;;;;;5099122;27;20487;-76
2023/06/17 07:28:46;;;;;;;18.97;11.20;;;19.30;99.90;;;;;;5102646;27;21888;-77
2023/06/17 07:31:12;;;;;;;16.55;10.55;;;19.40;99.90;;;;;;5108312;27;20404;-77
2023/06/17 07:33:39;;;;;;;16.48;10.60;;;19.50;99.90;;;;;;5107416;27;20420;-76
2023/06/17 07:36:06;;;;;;;17.35;11.18;;;19.50;99.90;;;;;;5103723;27;20411;-77
2023/06/17 07:38:34;;;;;;;16.80;10.73;;;19.60;99.90;;;;;;5099393;27;20497;-76
2023/06/17 07:41:01;;;;;;;16.25;10.85;;;19.60;99.90;;;;;;5106154;27;20786;-76
2023/06/17 07:43:27;;;;;;;17.30;11.02;;;19.60;99.90;;;;;;5103692;27;20398;-76
2023/06/17 07:45:52;;;;;;;17.80;11.50;;;19.70;99.90;;;;;;5107386;27;20547;-75
2023/06/17 07:48:18;;;;;;;17.83;10.95;;;19.70;99.90;;;;;;5103134;28;20501;-76
2023/06/17 07:50:44;;;;;;;16.47;11.07;;;19.70;99.90;;;;;;5107300;27;20897;-76
2023/06/17 07:53:10;;;;;;;16.58;10.85;;;19.70;99.90;;;;;;5097165;28;20413;-76
2023/06/17 07:55:37;;;;;;;19.80;11.90;;;19.70;99.90;;;;;;5102706;27;20410;-76
2023/06/17 07:58:03;;;;;;;18.05;11.32;;;19.80;99.90;;;;;;5106982;27;20407;-76
2023/06/17 08:00:29;;;;;;;17.60;11.53;;;19.80;99.90;;;;;;5100290;27;20407;-76
2023/06/17 08:02:55;;;;;;;16.63;11.18;;;19.80;99.90;;;;;;5104221;27;20400;-76
2023/06/17 08:05:21;;;;;;;17.92;11.82;;;19.90;99.90;;;;;;5105034;27;20491;-76
2023/06/17 08:07:47;;;;;;;17.27;11.50;;;19.90;99.90;;;;;;5125891;27;20833;-77
2023/06/17 08:10:12;;;;;;;17.50;11.33;;;19.90;99.90;;;;;;5123530;27;20497;-76
2023/06/17 08:12:38;;;;;;;20.40;12.07;;;20.00;99.90;;;;;;5124748;27;20430;-76
2023/06/17 08:15:05;;;;;;;18.07;11.47;;;20.00;99.90;;;;;;5110293;27;20833;-71
2023/06/17 08:17:31;;;;;;;17.23;11.70;;;20.00;99.90;;;;;;5120430;27;20417;-73
2023/06/17 08:19:56;;;;;;;19.77;12.02;;;20.00;99.90;;;;;;5122353;27;20428;-71
2023/06/17 08:22:22;;;;;;;19.27;12.73;;;20.00;99.90;;;;;;5116390;27;20815;-73
2023/06/17 08:24:48;;;;;;;22.53;12.80;;;20.20;99.90;;;;;;5121826;27;20502;-75
2023/06/17 08:27:13;;;;;;;18.55;11.57;;;20.30;99.90;;;;;;5122726;27;20438;-76
2023/06/17 08:29:39;;;;;;;21.87;13.00;;;20.40;99.90;;;;;;5120218;27;20420;-76
2023/06/17 08:32:06;;;;;;;18.75;11.45;;;20.50;99.90;;;;;;5115784;27;20462;-73
2023/06/17 08:34:32;;;;;;;19.93;11.63;;;20.60;99.90;;;;;;5112108;27;20905;-75
2023/06/17 08:37:04;;;;;;;21.08;11.13;;;20.80;99.90;;;;;;5118484;27;20407;-72
2023/06/17 08:39:36;;;;;;;17.55;11.48;;;20.90;99.90;;;;;;5115079;27;20472;-74
2023/06/17 08:42:01;;;;;;;15.95;10.15;;;21.00;99.90;;;;;;5119217;27;20496;-76
2023/06/17 08:44:31;;;;;;;16.95;11.05;;;21.20;99.90;;;;;;5120389;27;20567;-76
2023/06/17 08:47:00;;;;;;;16.67;10.80;;;21.30;99.90;;;;;;5115388;27;20404;-76
2023/06/17 08:49:28;;;;;;;15.15;10.65;;;21.40;99.90;;;;;;5116538;27;20423;-74
2023/06/17 08:51:55;;;;;;;17.27;10.43;;;21.40;99.90;;;;;;5119860;27;20798;-72
2023/06/17 08:54:21;;;;;;;16.67;11.33;;;21.60;99.90;;;;;;5127354;27;20443;-74
2023/06/17 08:56:48;;;;;;;16.00;10.50;;;21.70;99.90;;;;;;5126001;27;20451;-76
2023/06/17 08:59:13;;;;;;;14.68;10.07;;;21.80;99.90;;;;;;5113858;27;20412;-76
2023/06/17 09:01:40;;;;;;;15.63;10.20;;;21.90;99.90;;;;;;5108522;27;20415;-76
2023/06/17 09:04:06;;;;;;;15.52;9.70;;;21.90;99.90;;;;;;5106873;27;20402;-72
2023/06/17 09:06:31;;;;;;;14.30;9.40;;;21.90;99.90;;;;;;5116217;27;20396;-74
2023/06/17 09:08:58;;;;;;;15.95;10.10;;;22.10;99.90;;;;;;5127849;27;20421;-75
2023/06/17 09:11:25;;;;;;;15.30;10.02;;;22.20;99.90;;;;;;5124585;27;20405;-75
2023/06/17 09:13:56;;;;;;;15.50;9.13;;;22.30;99.90;;;;;;5112366;27;21161;-74
2023/06/17 09:16:34;;;;;;;16.58;9.45;;;22.40;99.90;;;;;;5119779;27;20428;-76
2023/06/17 09:19:02;;;;;;;12.52;9.00;;;22.50;99.80;;;;;;5125640;27;20529;-75
2023/06/17 09:21:28;;;;;;;14.25;9.48;;;22.50;99.50;;;;;;5119581;27;20431;-76
2023/06/17 09:23:55;;;;;;;15.45;9.30;;;22.60;99.40;;;;;;5120054;27;20438;-75
2023/06/17 09:26:32;;;;;;;15.75;9.52;;;22.70;99.60;;;;;;5120625;27;20432;-76
2023/06/17 09:29:01;;;;;;;17.08;9.43;;;22.80;99.20;;;;;;5119439;27;20781;-75
2023/06/17 09:31:28;;;;;;;15.02;10.88;;;22.80;99.00;;;;;;5115073;27;20406;-75
2023/06/17 09:33:54;;;;;;;14.77;9.80;;;22.90;99.20;;;;;;5119433;27;20494;-76
2023/06/17 09:36:21;;;;;;;14.43;9.50;;;23.00;99.10;;;;;;5121620;27;20414;-76
2023/06/17 09:38:47;;;;;;;16.88;9.82;;;23.30;99.10;;;;;;5112001;27;20408;-76
2023/06/17 09:41:18;;;;;;;15.70;10.68;;;23.50;98.60;;;;;;5122886;27;20451;-76
2023/06/17 09:43:50;;;;;;;14.85;9.77;;;23.50;98.00;;;;;;5123616;27;20395;-76
2023/06/17 09:46:25;;;;;;;14.98;10.02;;;23.60;98.00;;;;;;5104234;27;20758;-76
2023/06/17 09:48:52;;;;;;;17.63;9.63;;;23.80;98.00;;;;;;5106510;27;20499;-76
2023/06/17 09:51:21;;;;;;;13.88;9.10;;;24.00;97.90;;;;;;5125912;27;20996;-76
2023/06/17 09:53:50;;;;;;;14.05;9.00;;;24.30;97.20;;;;;;5122884;27;20407;-77
2023/06/17 09:56:16;;;;;;;;;;;24.50;97.00;;;;;;5126784;27;20566;-76
2023/06/17 09:58:42;;;;;;;16.55;9.40;;;24.60;96.00;;;;;;5119971;27;20007;-76
2023/06/17 10:01:08;;;;;;;;;;;24.80;96.10;;;;;;5117415;27;20047;-77
2023/06/17 10:03:34;;;;;;;14.93;8.80;;;24.90;95.50;;;;;;5111998;27;19981;-76
2023/06/17 10:06:10;;;;;;;14.00;9.50;;;25.10;95.60;;;;;;5124142;27;20406;-77
2023/06/17 10:08:37;;;;;;;14.82;10.07;;;25.30;95.40;;;;;;5110498;27;20537;-77
2023/06/17 10:11:02;;;;;;;14.80;10.27;;;25.50;94.90;;;;;;5125762;27;20894;-76
2023/06/17 10:13:33;;;;;;;13.53;9.97;;;25.60;94.90;;;;;;5120655;27;21481;-76
2023/06/17 10:16:00;;;;;;;15.68;10.93;;;25.70;94.40;;;;;;5125276;27;20960;-77
2023/06/17 10:18:28;;;;;;;15.25;9.70;;;25.90;93.90;;;;;;5111914;27;20398;-77
2023/06/17 10:20:55;;;;;;;14.13;8.93;;;26.00;93.70;;;;;;5122249;27;20434;-77
2023/06/17 10:23:22;;;;;;;13.88;8.30;;;26.10;92.80;;;;;;5121937;27;20440;-76
2023/06/17 10:25:48;;;;;;;15.82;9.32;;;26.30;92.70;;;;;;5121004;27;20440;-76
2023/06/17 10:28:17;;;;;;;14.33;9.03;;;26.30;92.40;;;;;;5121316;27;20449;-77
2023/06/17 10:30:48;;;;;;;12.18;8.77;;;26.40;92.50;;;;;;5123321;27;20434;-77
2023/06/17 10:33:13;;;;;;;;;;;26.60;92.40;;;;;;5117688;27;20054;-76
2023/06/17 10:35:44;;;;;;;11.70;8.07;;;26.80;91.90;;;;;;5090670;28;19920;-76
2023/06/17 10:38:26;;;;;;;;;;;26.90;92.00;;;;;;5101437;28;20100;-76
2023/06/17 10:40:52;;;;;;;13.27;8.07;;;27.10;92.10;;;;;;5109959;27;19919;-76
2023/06/17 10:43:18;;;;;;;;;;;27.20;91.80;;;;;;5124999;27;20866;-76
2023/06/17 10:45:49;;;;;;;14.88;8.15;;;27.40;91.60;;;;;;5109119;27;20462;-77
2023/06/17 10:48:19;;;;;;;15.32;8.43;;;27.50;91.20;;;;;;5086836;28;20055;-77
2023/06/17 10:50:48;;;;;;;12.00;8.38;;;27.50;91.00;;;;;;5103240;27;20418;-77
2023/06/17 10:53:17;;;;;;;14.25;9.15;;;27.40;90.80;;;;;;5104774;27;20408;-77
2023/06/17 10:55:43;;;;;;;14.98;8.90;;;27.40;90.40;;;;;;5106398;28;20464;-76
2023/06/17 10:58:10;;;;;;;15.20;9.15;;;27.50;90.50;;;;;;5107069;27;20911;-76
2023/06/17 11:00:35;;;;;;;14.17;9.00;;;27.50;90.30;;;;;;5104093;28;20893;-77
2023/06/17 11:03:01;;;;;;;11.80;8.10;;;27.60;90.10;;;;;;5096501;28;20289;-76
2023/06/17 11:05:34;;;;;;;12.75;8.23;;;27.70;89.00;;;;;;5100859;28;20436;-76
2023/06/17 11:08:01;;;;;;;14.23;8.48;;;27.70;89.60;;;;;;5101017;28;20926;-76
2023/06/17 11:10:27;;;;;;;13.35;9.02;;;27.90;89.50;;;;;;5098904;28;21327;-76
2023/06/17 11:12:53;;;;;;;13.53;8.57;;;28.00;88.70;;;;;;5097361;28;21306;-76
2023/06/17 11:15:20;;;;;;;;;;;28.20;87.90;;;;;;5103319;28;20052;-76
2023/06/17 11:17:45;;;;;;;;;;;28.20;87.80;;;;;;5102481;28;19943;-76
2023/06/17 11:20:11;;;;;;;14.13;7.63;;;28.30;87.70;;;;;;5100876;28;19927;-76
2023/06/17 11:22:38;;;;;;;13.18;8.57;;;28.40;87.50;;;;;;5111826;27;20369;-76
2023/06/17 11:25:04;;;;;;;12.93;8.05;;;28.60;86.70;;;;;;5116928;28;20040;-77
2023/06/17 11:27:30;;;;;;;15.80;8.45;;;28.70;86.30;;;;;;5111783;28;20396;-76
2023/06/17 11:29:56;;;;;;;13.70;7.43;;;28.70;85.80;;;;;;5115075;28;20403;-76
2023/06/17 11:32:22;;;;;;;;;;;28.80;84.90;;;;;;5113202;28;20044;-77
2023/06/17 11:34:50;;;;;;;12.40;7.07;;;28.90;84.60;;;;;;5116229;28;19919;-77
2023/06/17 11:37:16;;;;;;;10.85;6.50;;;28.80;84.70;;;;;;5112792;28;20400;-77
2023/06/17 11:39:42;;;;;;;14.75;7.95;;;28.70;84.30;;;;;;5114481;28;20613;-76
2023/06/17 11:42:09;;;;;;;11.57;7.50;;;28.80;84.60;;;;;;5110958;27;20430;-76
2023/06/17 11:44:35;;;;;;;15.98;8.43;;;28.80;83.50;;;;;;5110850;28;20407;-76
2023/06/17 11:47:05;;;;;;;11.20;7.60;;;28.80;83.30;;;;;;5110537;28;20399;-76
2023/06/17 11:49:31;;;;;;;11.43;7.90;;;29.00;83.10;;;;;;5095682;28;20422;-77
2023/06/17 11:52:09;;;;;;;12.02;7.63;;;28.90;82.90;;;;;;5111722;28;20434;-76
2023/06/17 11:54:45;;;;;;;12.45;7.68;;;29.00;82.90;;;;;;5098752;27;20412;-77
2023/06/17 11:57:16;;;;;;;;;;;29.00;82.60;;;;;;5119714;28;20040;-77
2023/06/17 11:59:43;;;;;;;;;;;29.00;81.80;;;;;;5125069;27;20042;-77
2023/06/17 12:02:10;;;;;;;9.95;6.30;;;29.10;80.60;;;;;;5114798;27;19927;-77
2023/06/17 12:04:36;;;;;;;14.70;7.53;;;29.00;81.00;;;;;;5126347;27;20402;-76
2023/06/17 12:07:05;;;;;;;14.05;7.80;;;29.00;80.20;;;;;;5124607;27;20394;-77
2023/06/17 12:09:37;;;;;;;11.23;7.07;;;28.90;80.70;;;;;;5122282;27;20427;-76
2023/06/17 12:12:04;;;;;;;11.77;7.27;;;28.90;80.70;;;;;;5111417;28;20439;-77
2023/06/17 12:14:30;;;;;;;10.25;6.75;;;28.80;79.90;;;;;;5117145;27;20420;-76
2023/06/17 12:16:55;;;;;;;12.32;7.28;;;28.80;80.80;;;;;;5123377;27;20402;-76
2023/06/17 12:19:23;;;;;;;12.38;7.18;;;28.80;80.60;;;;;;5106572;27;20890;-76
2023/06/17 12:21:49;;;;;;;9.80;6.97;;;29.00;80.50;;;;;;5122854;27;20406;-77
2023/06/17 12:24:16;;;;;;;12.88;7.10;;;29.00;79.80;;;;;;5123184;27;20403;-77
2023/06/17 12:26:42;;;;;;;10.13;6.95;;;28.90;79.80;;;;;;5118413;27;20404;-76
2023/06/17 12:29:10;;;;;;;12.00;7.17;;;28.90;79.80;;;;;;5101074;27;20430;-76
2023/06/17 12:31:36;;;;;;;12.15;6.50;;;29.10;80.10;;;;;;5122455;27;20435;-76